sensor_id;sensor_type;location;lat;lon;timestamp;temperature;humidity
6206;DHT22;3136;48.788;9.772;2022-07-29T00:01:50;17.00;1.00
6206;DHT22;3136;48.788;9.772;2022-07-29T00:04:18;17.00;1.00
6206;DHT22;3136;48.788;9.772;2022-07-29T00:06:43;16.90;1.00
6206;DHT22;3136;48.788;9.772;2022-07-29T00:09:09;16.90;8.70
6206;DHT22;3136;48.788;9.772;2022-07-29T00:11:35;16.90;14.10
6206;DHT22;3136;48.788;9.772;2022-07-29T00:14:00;16.90;16.90
6206;DHT22;3136;48.788;9.772;2022-07-29T00:16:26;16.90;18.30
6206;DHT22;3136;48.788;9.772;2022-07-29T00:18:52;16.90;18.30
6206;DHT22;3136;48.788;9.772;2022-07-29T00:21:17;16.80;19.00
6206;DHT22;3136;48.788;9.772;2022-07-29T00:23:43;16.80;22.30
6206;DHT22;3136;48.788;9.772;2022-07-29T00:26:08;16.80;22.60
6206;DHT22;3136;48.788;9.772;2022-07-29T00:28:34;16.90;26.00
6206;DHT22;3136;48.788;9.772;2022-07-29T00:31:00;16.80;26.20
6206;DHT22;3136;48.788;9.772;2022-07-29T00:33:25;16.90;26.20
6206;DHT22;3136;48.788;9.772;2022-07-29T00:35:51;16.80;27.30
6206;DHT22;3136;48.788;9.772;2022-07-29T00:38:18;16.80;29.50
6206;DHT22;3136;48.788;9.772;2022-07-29T00:40:45;16.80;31.30
6206;DHT22;3136;48.788;9.772;2022-07-29T00:43:13;16.90;31.30
6206;DHT22;3136;48.788;9.772;2022-07-29T00:45:39;16.80;31.60
6206;DHT22;3136;48.788;9.772;2022-07-29T00:48:05;16.90;34.00
6206;DHT22;3136;48.788;9.772;2022-07-29T00:50:32;16.80;35.60
6206;DHT22;3136;48.788;9.772;2022-07-29T00:52:58;16.90;37.40
6206;DHT22;3136;48.788;9.772;2022-07-29T00:55:25;17.00;38.40
6206;DHT22;3136;48.788;9.772;2022-07-29T00:57:50;16.90;40.10
6206;DHT22;3136;48.788;9.772;2022-07-29T01:00:21;16.90;41.00
6206;DHT22;3136;48.788;9.772;2022-07-29T01:02:47;16.90;41.00
6206;DHT22;3136;48.788;9.772;2022-07-29T01:05:15;16.90;42.20
6206;DHT22;3136;48.788;9.772;2022-07-29T01:07:42;16.90;43.30
6206;DHT22;3136;48.788;9.772;2022-07-29T01:10:09;16.90;44.30
6206;DHT22;3136;48.788;9.772;2022-07-29T01:12:37;17.00;45.10
6206;DHT22;3136;48.788;9.772;2022-07-29T01:15:05;17.00;45.20
6206;DHT22;3136;48.788;9.772;2022-07-29T01:17:43;17.00;46.50
6206;DHT22;3136;48.788;9.772;2022-07-29T01:23:12;16.90;43.50
6206;DHT22;3136;48.788;9.772;2022-07-29T01:25:58;16.90;43.90
6206;DHT22;3136;48.788;9.772;2022-07-29T01:29:17;16.90;44.70
6206;DHT22;3136;48.788;9.772;2022-07-29T01:34:19;17.00;49.10
6206;DHT22;3136;48.788;9.772;2022-07-29T01:37:01;17.00;51.30
6206;DHT22;3136;48.788;9.772;2022-07-29T01:39:33;17.20;53.60
6206;DHT22;3136;48.788;9.772;2022-07-29T01:44:35;17.10;53.40
6206;DHT22;3136;48.788;9.772;2022-07-29T01:47:10;17.10;52.20
6206;DHT22;3136;48.788;9.772;2022-07-29T01:49:43;17.10;51.60
6206;DHT22;3136;48.788;9.772;2022-07-29T01:52:20;17.10;52.90
6206;DHT22;3136;48.788;9.772;2022-07-29T01:54:55;17.10;53.30
6206;DHT22;3136;48.788;9.772;2022-07-29T01:57:28;17.20;53.30
6206;DHT22;3136;48.788;9.772;2022-07-29T01:59:56;17.10;53.20
6206;DHT22;3136;48.788;9.772;2022-07-29T02:02:22;17.00;51.50
6206;DHT22;3136;48.788;9.772;2022-07-29T02:04:49;17.00;49.10
6206;DHT22;3136;48.788;9.772;2022-07-29T02:07:20;16.90;47.50
6206;DHT22;3136;48.788;9.772;2022-07-29T02:09:47;16.90;47.40
6206;DHT22;3136;48.788;9.772;2022-07-29T02:12:17;16.90;46.50
6206;DHT22;3136;48.788;9.772;2022-07-29T02:14:52;16.90;46.80
6206;DHT22;3136;48.788;9.772;2022-07-29T02:17:26;16.80;46.00
6206;DHT22;3136;48.788;9.772;2022-07-29T02:19:56;16.70;45.40
6206;DHT22;3136;48.788;9.772;2022-07-29T02:22:24;16.70;46.20
6206;DHT22;3136;48.788;9.772;2022-07-29T02:24:52;16.70;47.50
6206;DHT22;3136;48.788;9.772;2022-07-29T02:27:19;16.60;48.70
6206;DHT22;3136;48.788;9.772;2022-07-29T02:29:46;16.60;48.70
6206;DHT22;3136;48.788;9.772;2022-07-29T02:32:14;16.60;48.80
6206;DHT22;3136;48.788;9.772;2022-07-29T02:34:42;16.50;49.10
6206;DHT22;3136;48.788;9.772;2022-07-29T02:37:10;16.50;49.90
6206;DHT22;3136;48.788;9.772;2022-07-29T02:39:37;16.50;50.50
6206;DHT22;3136;48.788;9.772;2022-07-29T02:42:07;16.40;51.30
6206;DHT22;3136;48.788;9.772;2022-07-29T02:44:34;16.50;52.10
6206;DHT22;3136;48.788;9.772;2022-07-29T02:47:16;16.50;53.00
6206;DHT22;3136;48.788;9.772;2022-07-29T02:52:53;16.40;53.90
6206;DHT22;3136;48.788;9.772;2022-07-29T02:55:26;16.40;54.90
6206;DHT22;3136;48.788;9.772;2022-07-29T02:58:02;16.50;54.60
6206;DHT22;3136;48.788;9.772;2022-07-29T03:00:30;16.40;53.40
6206;DHT22;3136;48.788;9.772;2022-07-29T03:02:58;16.40;53.30
6206;DHT22;3136;48.788;9.772;2022-07-29T03:05:25;16.30;52.90
6206;DHT22;3136;48.788;9.772;2022-07-29T03:07:55;16.20;53.00
6206;DHT22;3136;48.788;9.772;2022-07-29T03:10:23;16.20;53.40
6206;DHT22;3136;48.788;9.772;2022-07-29T03:12:50;16.20;54.30
6206;DHT22;3136;48.788;9.772;2022-07-29T03:15:16;16.20;54.60
6206;DHT22;3136;48.788;9.772;2022-07-29T03:17:43;16.10;54.40
6206;DHT22;3136;48.788;9.772;2022-07-29T03:20:10;16.10;53.90
6206;DHT22;3136;48.788;9.772;2022-07-29T03:22:41;16.10;53.60
6206;DHT22;3136;48.788;9.772;2022-07-29T03:25:14;16.00;53.70
6206;DHT22;3136;48.788;9.772;2022-07-29T03:27:40;16.00;54.70
6206;DHT22;3136;48.788;9.772;2022-07-29T03:30:07;16.00;54.80
6206;DHT22;3136;48.788;9.772;2022-07-29T03:32:33;15.90;54.60
6206;DHT22;3136;48.788;9.772;2022-07-29T03:34:59;15.90;54.10
6206;DHT22;3136;48.788;9.772;2022-07-29T03:37:25;15.90;54.40
6206;DHT22;3136;48.788;9.772;2022-07-29T03:39:51;15.80;54.20
6206;DHT22;3136;48.788;9.772;2022-07-29T03:42:19;15.80;54.40
6206;DHT22;3136;48.788;9.772;2022-07-29T03:44:47;15.80;54.90
6206;DHT22;3136;48.788;9.772;2022-07-29T03:47:15;15.70;54.70
6206;DHT22;3136;48.788;9.772;2022-07-29T03:49:42;15.70;54.90
6206;DHT22;3136;48.788;9.772;2022-07-29T03:52:10;15.70;55.00
6206;DHT22;3136;48.788;9.772;2022-07-29T03:54:36;15.60;55.20
6206;DHT22;3136;48.788;9.772;2022-07-29T03:57:02;15.70;55.90
6206;DHT22;3136;48.788;9.772;2022-07-29T03:59:30;15.60;56.20
6206;DHT22;3136;48.788;9.772;2022-07-29T04:01:58;15.60;56.50
6206;DHT22;3136;48.788;9.772;2022-07-29T04:04:24;15.60;57.10
6206;DHT22;3136;48.788;9.772;2022-07-29T04:06:51;15.60;57.30
6206;DHT22;3136;48.788;9.772;2022-07-29T04:09:16;15.50;57.10
6206;DHT22;3136;48.788;9.772;2022-07-29T04:11:42;15.50;57.00
6206;DHT22;3136;48.788;9.772;2022-07-29T04:14:08;15.50;57.90
6206;DHT22;3136;48.788;9.772;2022-07-29T04:16:34;15.50;59.00
6206;DHT22;3136;48.788;9.772;2022-07-29T04:18:59;15.50;59.90
6206;DHT22;3136;48.788;9.772;2022-07-29T04:21:25;15.50;61.20
6206;DHT22;3136;48.788;9.772;2022-07-29T04:23:50;15.60;62.80
6206;DHT22;3136;48.788;9.772;2022-07-29T04:26:17;15.60;64.80
6206;DHT22;3136;48.788;9.772;2022-07-29T04:28:42;15.60;66.50
6206;DHT22;3136;48.788;9.772;2022-07-29T04:31:09;15.70;68.20
6206;DHT22;3136;48.788;9.772;2022-07-29T04:33:35;15.70;69.30
6206;DHT22;3136;48.788;9.772;2022-07-29T04:36:00;15.70;69.60
6206;DHT22;3136;48.788;9.772;2022-07-29T04:38:26;15.70;69.60
6206;DHT22;3136;48.788;9.772;2022-07-29T04:40:51;15.80;70.40
6206;DHT22;3136;48.788;9.772;2022-07-29T04:43:17;15.80;71.40
6206;DHT22;3136;48.788;9.772;2022-07-29T04:45:42;15.80;71.90
6206;DHT22;3136;48.788;9.772;2022-07-29T04:48:08;15.90;72.10
6206;DHT22;3136;48.788;9.772;2022-07-29T04:50:34;15.90;72.40
6206;DHT22;3136;48.788;9.772;2022-07-29T04:52:59;15.90;73.00
6206;DHT22;3136;48.788;9.772;2022-07-29T04:55:25;15.90;73.60
6206;DHT22;3136;48.788;9.772;2022-07-29T04:57:51;16.00;74.60
6206;DHT22;3136;48.788;9.772;2022-07-29T05:00:17;16.00;75.20
6206;DHT22;3136;48.788;9.772;2022-07-29T05:02:42;16.00;75.30
6206;DHT22;3136;48.788;9.772;2022-07-29T05:05:08;16.00;74.90
6206;DHT22;3136;48.788;9.772;2022-07-29T05:07:34;15.90;74.60
6206;DHT22;3136;48.788;9.772;2022-07-29T05:09:59;16.00;74.90
6206;DHT22;3136;48.788;9.772;2022-07-29T05:12:25;16.10;76.80
6206;DHT22;3136;48.788;9.772;2022-07-29T05:14:51;16.10;78.00
6206;DHT22;3136;48.788;9.772;2022-07-29T05:17:17;17.00;80.50
6206;DHT22;3136;48.788;9.772;2022-07-29T05:19:42;16.30;80.90
6206;DHT22;3136;48.788;9.772;2022-07-29T05:22:08;16.40;81.80
6206;DHT22;3136;48.788;9.772;2022-07-29T05:24:33;16.40;82.40
6206;DHT22;3136;48.788;9.772;2022-07-29T05:26:59;16.40;81.10
6206;DHT22;3136;48.788;9.772;2022-07-29T05:29:25;16.30;78.10
6206;DHT22;3136;48.788;9.772;2022-07-29T05:31:51;16.30;75.90
6206;DHT22;3136;48.788;9.772;2022-07-29T05:34:18;16.30;75.10
6206;DHT22;3136;48.788;9.772;2022-07-29T05:36:44;16.30;75.50
6206;DHT22;3136;48.788;9.772;2022-07-29T05:39:10;16.40;77.30
6206;DHT22;3136;48.788;9.772;2022-07-29T05:41:36;16.40;77.50
6206;DHT22;3136;48.788;9.772;2022-07-29T05:44:02;16.50;78.40
6206;DHT22;3136;48.788;9.772;2022-07-29T05:46:27;16.60;78.90
6206;DHT22;3136;48.788;9.772;2022-07-29T05:48:53;16.60;78.80
6206;DHT22;3136;48.788;9.772;2022-07-29T05:51:19;16.60;77.20
6206;DHT22;3136;48.788;9.772;2022-07-29T05:53:44;16.60;75.00
6206;DHT22;3136;48.788;9.772;2022-07-29T05:56:10;16.60;73.70
6206;DHT22;3136;48.788;9.772;2022-07-29T05:58:35;16.60;72.20
6206;DHT22;3136;48.788;9.772;2022-07-29T06:01:01;16.70;71.30
6206;DHT22;3136;48.788;9.772;2022-07-29T06:03:27;16.70;71.20
6206;DHT22;3136;48.788;9.772;2022-07-29T06:05:53;16.60;72.90
6206;DHT22;3136;48.788;9.772;2022-07-29T06:08:18;16.70;73.40
6206;DHT22;3136;48.788;9.772;2022-07-29T06:10:44;16.70;72.00
6206;DHT22;3136;48.788;9.772;2022-07-29T06:13:11;16.80;71.30
6206;DHT22;3136;48.788;9.772;2022-07-29T06:15:37;16.80;73.00
6206;DHT22;3136;48.788;9.772;2022-07-29T06:18:03;16.90;74.20
6206;DHT22;3136;48.788;9.772;2022-07-29T06:20:29;16.90;74.80
6206;DHT22;3136;48.788;9.772;2022-07-29T06:22:56;17.00;76.20
6206;DHT22;3136;48.788;9.772;2022-07-29T06:25:22;17.20;77.80
6206;DHT22;3136;48.788;9.772;2022-07-29T06:27:48;17.30;79.20
6206;DHT22;3136;48.788;9.772;2022-07-29T06:30:14;17.40;79.60
6206;DHT22;3136;48.788;9.772;2022-07-29T06:32:39;17.50;77.50
6206;DHT22;3136;48.788;9.772;2022-07-29T06:35:05;17.50;72.10
6206;DHT22;3136;48.788;9.772;2022-07-29T06:37:31;17.60;66.20
6206;DHT22;3136;48.788;9.772;2022-07-29T06:39:57;17.70;68.90
6206;DHT22;3136;48.788;9.772;2022-07-29T06:42:44;17.90;65.50
6206;DHT22;3136;48.788;9.772;2022-07-29T06:45:11;17.80;61.90
6206;DHT22;3136;48.788;9.772;2022-07-29T06:47:37;17.90;57.70
6206;DHT22;3136;48.788;9.772;2022-07-29T06:50:03;17.90;51.70
6206;DHT22;3136;48.788;9.772;2022-07-29T06:52:29;17.90;48.00
6206;DHT22;3136;48.788;9.772;2022-07-29T06:54:54;17.90;47.80
6206;DHT22;3136;48.788;9.772;2022-07-29T06:57:21;18.00;47.80
6206;DHT22;3136;48.788;9.772;2022-07-29T06:59:46;18.10;46.10
6206;DHT22;3136;48.788;9.772;2022-07-29T07:02:12;18.10;44.10
6206;DHT22;3136;48.788;9.772;2022-07-29T07:04:38;18.20;40.80
6206;DHT22;3136;48.788;9.772;2022-07-29T07:07:03;18.20;35.80
6206;DHT22;3136;48.788;9.772;2022-07-29T07:09:29;18.30;36.50
6206;DHT22;3136;48.788;9.772;2022-07-29T07:11:55;18.40;32.00
6206;DHT22;3136;48.788;9.772;2022-07-29T07:14:20;18.60;33.00
6206;DHT22;3136;48.788;9.772;2022-07-29T07:16:46;18.70;33.60
6206;DHT22;3136;48.788;9.772;2022-07-29T07:19:11;18.80;11.20
6206;DHT22;3136;48.788;9.772;2022-07-29T07:21:37;18.80;1.40
6206;DHT22;3136;48.788;9.772;2022-07-29T07:24:02;18.90;1.00
6206;DHT22;3136;48.788;9.772;2022-07-29T07:26:28;18.80;1.00
6206;DHT22;3136;48.788;9.772;2022-07-29T07:28:54;18.80;1.00
6206;DHT22;3136;48.788;9.772;2022-07-29T07:31:19;19.00;1.00
6206;DHT22;3136;48.788;9.772;2022-07-29T07:33:45;19.20;1.00
6206;DHT22;3136;48.788;9.772;2022-07-29T07:36:11;19.40;1.00
6206;DHT22;3136;48.788;9.772;2022-07-29T07:38:36;19.50;1.00
6206;DHT22;3136;48.788;9.772;2022-07-29T07:41:02;19.50;1.00
6206;DHT22;3136;48.788;9.772;2022-07-29T07:43:28;19.60;99.90
6206;DHT22;3136;48.788;9.772;2022-07-29T07:45:53;19.70;99.90
6206;DHT22;3136;48.788;9.772;2022-07-29T07:48:19;19.80;99.90
6206;DHT22;3136;48.788;9.772;2022-07-29T07:50:44;20.00;99.90
6206;DHT22;3136;48.788;9.772;2022-07-29T07:53:10;20.10;99.90
6206;DHT22;3136;48.788;9.772;2022-07-29T07:55:43;20.20;70.30
6206;DHT22;3136;48.788;9.772;2022-07-29T07:58:09;20.40;1.00
6206;DHT22;3136;48.788;9.772;2022-07-29T08:00:35;20.50;99.90
6206;DHT22;3136;48.788;9.772;2022-07-29T08:03:00;20.50;1.00
6206;DHT22;3136;48.788;9.772;2022-07-29T08:05:26;20.70;1.00
6206;DHT22;3136;48.788;9.772;2022-07-29T08:07:51;20.80;99.90
6206;DHT22;3136;48.788;9.772;2022-07-29T08:10:18;20.90;1.00
6206;DHT22;3136;48.788;9.772;2022-07-29T08:13:07;20.90;1.00
6206;DHT22;3136;48.788;9.772;2022-07-29T08:15:34;20.90;1.00
6206;DHT22;3136;48.788;9.772;2022-07-29T08:18:00;20.90;1.00
6206;DHT22;3136;48.788;9.772;2022-07-29T08:20:25;20.80;99.90
6206;DHT22;3136;48.788;9.772;2022-07-29T08:22:51;20.70;1.00
6206;DHT22;3136;48.788;9.772;2022-07-29T08:25:18;20.80;99.90
6206;DHT22;3136;48.788;9.772;2022-07-29T08:27:48;20.90;1.00
6206;DHT22;3136;48.788;9.772;2022-07-29T08:30:14;21.10;1.00
6206;DHT22;3136;48.788;9.772;2022-07-29T08:32:40;21.30;99.90
6206;DHT22;3136;48.788;9.772;2022-07-29T08:35:05;21.30;99.90
6206;DHT22;3136;48.788;9.772;2022-07-29T08:37:31;21.40;99.90
6206;DHT22;3136;48.788;9.772;2022-07-29T08:39:58;21.50;1.00
6206;DHT22;3136;48.788;9.772;2022-07-29T08:42:23;21.50;1.00
6206;DHT22;3136;48.788;9.772;2022-07-29T08:44:49;21.60;99.90
6206;DHT22;3136;48.788;9.772;2022-07-29T08:47:16;21.80;99.90
6206;DHT22;3136;48.788;9.772;2022-07-29T08:49:42;21.90;1.00
6206;DHT22;3136;48.788;9.772;2022-07-29T08:52:11;21.80;21.60
6206;DHT22;3136;48.788;9.772;2022-07-29T08:54:38;21.80;1.00
6206;DHT22;3136;48.788;9.772;2022-07-29T08:57:05;21.80;1.00
6206;DHT22;3136;48.788;9.772;2022-07-29T08:59:33;21.80;99.90
6206;DHT22;3136;48.788;9.772;2022-07-29T09:02:00;21.80;99.90
6206;DHT22;3136;48.788;9.772;2022-07-29T09:04:34;21.90;1.00
6206;DHT22;3136;48.788;9.772;2022-07-29T09:07:04;22.10;1.00
6206;DHT22;3136;48.788;9.772;2022-07-29T09:09:30;22.30;99.90
6206;DHT22;3136;48.788;9.772;2022-07-29T09:11:55;22.40;99.90
6206;DHT22;3136;48.788;9.772;2022-07-29T09:14:21;22.40;99.90
6206;DHT22;3136;48.788;9.772;2022-07-29T09:16:52;22.50;99.90
6206;DHT22;3136;48.788;9.772;2022-07-29T09:19:31;22.60;99.90
6206;DHT22;3136;48.788;9.772;2022-07-29T09:21:59;22.70;99.90
6206;DHT22;3136;48.788;9.772;2022-07-29T09:27:00;22.90;99.90
6206;DHT22;3136;48.788;9.772;2022-07-29T09:29:27;22.90;99.90
6206;DHT22;3136;48.788;9.772;2022-07-29T09:31:54;23.00;99.90
6206;DHT22;3136;48.788;9.772;2022-07-29T09:34:25;23.10;99.90
6206;DHT22;3136;48.788;9.772;2022-07-29T09:36:52;23.20;99.90
6206;DHT22;3136;48.788;9.772;2022-07-29T09:39:30;23.30;99.90
6206;DHT22;3136;48.788;9.772;2022-07-29T09:41:58;23.40;99.90
6206;DHT22;3136;48.788;9.772;2022-07-29T09:44:24;23.30;99.90
6206;DHT22;3136;48.788;9.772;2022-07-29T09:46:59;23.40;99.90
6206;DHT22;3136;48.788;9.772;2022-07-29T09:49:32;23.40;99.90
6206;DHT22;3136;48.788;9.772;2022-07-29T09:52:09;23.80;99.90
6206;DHT22;3136;48.788;9.772;2022-07-29T09:54:35;24.00;99.90
6206;DHT22;3136;48.788;9.772;2022-07-29T09:57:25;24.20;99.90
6206;DHT22;3136;48.788;9.772;2022-07-29T10:02:32;24.50;99.90
6206;DHT22;3136;48.788;9.772;2022-07-29T10:04:59;24.70;99.90
6206;DHT22;3136;48.788;9.772;2022-07-29T10:07:25;24.80;97.70
6206;DHT22;3136;48.788;9.772;2022-07-29T10:09:55;24.90;67.90
6206;DHT22;3136;48.788;9.772;2022-07-29T10:12:22;25.00;93.10
6206;DHT22;3136;48.788;9.772;2022-07-29T10:14:48;25.20;66.60
6206;DHT22;3136;48.788;9.772;2022-07-29T10:17:15;25.50;70.10
6206;DHT22;3136;48.788;9.772;2022-07-29T10:19:42;25.70;56.80
6206;DHT22;3136;48.788;9.772;2022-07-29T10:22:08;25.90;47.70
6206;DHT22;3136;48.788;9.772;2022-07-29T10:24:36;26.00;35.20
6206;DHT22;3136;48.788;9.772;2022-07-29T10:27:07;26.10;38.70
6206;DHT22;3136;48.788;9.772;2022-07-29T10:29:33;26.30;41.00
6206;DHT22;3136;48.788;9.772;2022-07-29T10:34:44;26.60;30.30
6206;DHT22;3136;48.788;9.772;2022-07-29T10:40:28;26.80;35.20
6206;DHT22;3136;48.788;9.772;2022-07-29T10:43:19;27.00;19.90
6206;DHT22;3136;48.788;9.772;2022-07-29T10:45:48;27.20;27.00
6206;DHT22;3136;48.788;9.772;2022-07-29T10:48:14;27.60;20.10
6206;DHT22;3136;48.788;9.772;2022-07-29T10:51:01;28.40;15.00
6206;DHT22;3136;48.788;9.772;2022-07-29T10:53:47;29.30;8.30
6206;DHT22;3136;48.788;9.772;2022-07-29T10:56:24;30.20;3.40
6206;DHT22;3136;48.788;9.772;2022-07-29T11:01:52;30.80;1.00
6206;DHT22;3136;48.788;9.772;2022-07-29T11:04:58;30.40;1.00
6206;DHT22;3136;48.788;9.772;2022-07-29T11:07:25;29.50;1.00
6206;DHT22;3136;48.788;9.772;2022-07-29T11:15:07;27.70;4.70
6206;DHT22;3136;48.788;9.772;2022-07-29T11:18:06;27.40;12.90
6206;DHT22;3136;48.788;9.772;2022-07-29T11:20:45;27.30;14.40
6206;DHT22;3136;48.788;9.772;2022-07-29T11:23:28;27.20;19.10
6206;DHT22;3136;48.788;9.772;2022-07-29T11:26:15;27.00;24.10
6206;DHT22;3136;48.788;9.772;2022-07-29T11:33:57;26.70;11.10
6206;DHT22;3136;48.788;9.772;2022-07-29T11:36:22;26.50;9.40
6206;DHT22;3136;48.788;9.772;2022-07-29T11:38:48;26.60;14.90
6206;DHT22;3136;48.788;9.772;2022-07-29T11:41:20;26.60;8.50
6206;DHT22;3136;48.788;9.772;2022-07-29T11:43:59;26.40;11.50
6206;DHT22;3136;48.788;9.772;2022-07-29T11:46:46;26.20;12.60
6206;DHT22;3136;48.788;9.772;2022-07-29T11:49:22;26.10;20.50
6206;DHT22;3136;48.788;9.772;2022-07-29T11:51:56;25.80;23.70
6206;DHT22;3136;48.788;9.772;2022-07-29T11:54:26;25.60;15.30
6206;DHT22;3136;48.788;9.772;2022-07-29T11:56:52;25.50;19.90
6206;DHT22;3136;48.788;9.772;2022-07-29T11:59:19;25.30;24.20
6206;DHT22;3136;48.788;9.772;2022-07-29T12:01:55;25.10;39.30
6206;DHT22;3136;48.788;9.772;2022-07-29T12:04:21;25.00;42.00
6206;DHT22;3136;48.788;9.772;2022-07-29T12:06:52;24.90;47.50
6206;DHT22;3136;48.788;9.772;2022-07-29T12:09:19;24.80;45.20
6206;DHT22;3136;48.788;9.772;2022-07-29T12:11:45;24.70;44.90
6206;DHT22;3136;48.788;9.772;2022-07-29T12:14:25;24.60;47.30
6206;DHT22;3136;48.788;9.772;2022-07-29T12:16:51;24.50;60.70
6206;DHT22;3136;48.788;9.772;2022-07-29T12:19:17;24.30;87.10
6206;DHT22;3136;48.788;9.772;2022-07-29T12:21:47;24.40;97.70
6206;DHT22;3136;48.788;9.772;2022-07-29T12:24:13;24.30;99.90
6206;DHT22;3136;48.788;9.772;2022-07-29T12:26:52;24.10;99.90
6206;DHT22;3136;48.788;9.772;2022-07-29T12:29:18;24.00;99.90
6206;DHT22;3136;48.788;9.772;2022-07-29T12:31:44;24.00;99.90
6206;DHT22;3136;48.788;9.772;2022-07-29T12:34:15;23.90;99.90
6206;DHT22;3136;48.788;9.772;2022-07-29T12:36:42;23.90;99.90
6206;DHT22;3136;48.788;9.772;2022-07-29T12:39:08;23.90;99.90
6206;DHT22;3136;48.788;9.772;2022-07-29T12:41:34;24.00;99.90
6206;DHT22;3136;48.788;9.772;2022-07-29T12:44:00;24.00;99.90
6206;DHT22;3136;48.788;9.772;2022-07-29T12:46:26;24.00;99.90
6206;DHT22;3136;48.788;9.772;2022-07-29T12:48:53;24.00;99.90
6206;DHT22;3136;48.788;9.772;2022-07-29T12:51:33;24.10;99.90
6206;DHT22;3136;48.788;9.772;2022-07-29T12:54:09;24.10;99.90
6206;DHT22;3136;48.788;9.772;2022-07-29T12:56:39;24.00;99.90
6206;DHT22;3136;48.788;9.772;2022-07-29T12:59:16;23.90;99.90
6206;DHT22;3136;48.788;9.772;2022-07-29T13:01:42;23.90;99.90
6206;DHT22;3136;48.788;9.772;2022-07-29T13:04:08;23.80;99.90
6206;DHT22;3136;48.788;9.772;2022-07-29T13:06:35;23.80;99.90
6206;DHT22;3136;48.788;9.772;2022-07-29T13:09:04;23.80;99.90
6206;DHT22;3136;48.788;9.772;2022-07-29T13:11:32;23.70;99.90
6206;DHT22;3136;48.788;9.772;2022-07-29T13:13:58;23.60;99.90
6206;DHT22;3136;48.788;9.772;2022-07-29T13:16:24;23.60;99.90
6206;DHT22;3136;48.788;9.772;2022-07-29T13:19:09;23.60;99.90
6206;DHT22;3136;48.788;9.772;2022-07-29T13:21:36;23.60;99.90
6206;DHT22;3136;48.788;9.772;2022-07-29T13:24:03;23.60;99.90
6206;DHT22;3136;48.788;9.772;2022-07-29T13:26:29;23.70;99.90
6206;DHT22;3136;48.788;9.772;2022-07-29T13:28:55;23.80;99.90
6206;DHT22;3136;48.788;9.772;2022-07-29T13:31:21;23.80;99.90
6206;DHT22;3136;48.788;9.772;2022-07-29T13:33:47;23.70;99.90
6206;DHT22;3136;48.788;9.772;2022-07-29T13:36:13;23.70;99.90
6206;DHT22;3136;48.788;9.772;2022-07-29T13:38:39;23.50;99.90
6206;DHT22;3136;48.788;9.772;2022-07-29T13:41:04;23.50;99.90
6206;DHT22;3136;48.788;9.772;2022-07-29T13:43:30;23.50;99.90
6206;DHT22;3136;48.788;9.772;2022-07-29T13:45:55;23.40;99.90
6206;DHT22;3136;48.788;9.772;2022-07-29T13:48:21;23.40;99.90
6206;DHT22;3136;48.788;9.772;2022-07-29T13:50:47;23.50;99.90
6206;DHT22;3136;48.788;9.772;2022-07-29T13:53:13;23.50;81.10
6206;DHT22;3136;48.788;9.772;2022-07-29T13:55:39;23.60;79.90
6206;DHT22;3136;48.788;9.772;2022-07-29T13:58:04;23.60;94.10
6206;DHT22;3136;48.788;9.772;2022-07-29T14:00:30;23.60;62.30
6206;DHT22;3136;48.788;9.772;2022-07-29T14:02:56;23.60;91.20
6206;DHT22;3136;48.788;9.772;2022-07-29T14:05:22;23.50;55.30
6206;DHT22;3136;48.788;9.772;2022-07-29T14:07:47;23.50;68.50
6206;DHT22;3136;48.788;9.772;2022-07-29T14:10:13;23.30;38.80
6206;DHT22;3136;48.788;9.772;2022-07-29T14:12:39;23.20;37.40
6206;DHT22;3136;48.788;9.772;2022-07-29T14:15:07;23.10;30.10
6206;DHT22;3136;48.788;9.772;2022-07-29T14:17:33;23.00;30.10
6206;DHT22;3136;48.788;9.772;2022-07-29T14:19:58;22.80;42.30
6206;DHT22;3136;48.788;9.772;2022-07-29T14:22:24;22.80;39.80
6206;DHT22;3136;48.788;9.772;2022-07-29T14:24:50;22.70;42.00
6206;DHT22;3136;48.788;9.772;2022-07-29T14:27:16;22.70;59.20
6206;DHT22;3136;48.788;9.772;2022-07-29T14:29:41;22.60;86.60
6206;DHT22;3136;48.788;9.772;2022-07-29T14:32:08;22.60;94.00
6206;DHT22;3136;48.788;9.772;2022-07-29T14:34:35;22.40;99.90
6206;DHT22;3136;48.788;9.772;2022-07-29T14:37:01;22.40;97.60
6206;DHT22;3136;48.788;9.772;2022-07-29T14:39:28;22.40;99.90
6206;DHT22;3136;48.788;9.772;2022-07-29T14:41:54;22.30;99.90
6206;DHT22;3136;48.788;9.772;2022-07-29T14:44:20;22.20;99.90
6206;DHT22;3136;48.788;9.772;2022-07-29T14:46:45;22.30;99.90
6206;DHT22;3136;48.788;9.772;2022-07-29T14:49:11;22.20;99.90
6206;DHT22;3136;48.788;9.772;2022-07-29T14:51:36;22.10;99.90
6206;DHT22;3136;48.788;9.772;2022-07-29T14:54:02;22.10;99.90
6206;DHT22;3136;48.788;9.772;2022-07-29T14:56:28;21.90;99.90
6206;DHT22;3136;48.788;9.772;2022-07-29T14:58:56;21.90;99.90
6206;DHT22;3136;48.788;9.772;2022-07-29T15:01:21;22.00;99.90
6206;DHT22;3136;48.788;9.772;2022-07-29T15:03:47;21.90;99.90
6206;DHT22;3136;48.788;9.772;2022-07-29T15:06:12;21.90;99.90
6206;DHT22;3136;48.788;9.772;2022-07-29T15:08:38;21.90;99.90
6206;DHT22;3136;48.788;9.772;2022-07-29T15:11:04;21.90;99.90
6206;DHT22;3136;48.788;9.772;2022-07-29T15:13:29;22.00;99.90
6206;DHT22;3136;48.788;9.772;2022-07-29T15:15:55;22.00;99.90
6206;DHT22;3136;48.788;9.772;2022-07-29T15:18:20;21.90;99.90
6206;DHT22;3136;48.788;9.772;2022-07-29T15:20:46;21.90;99.90
6206;DHT22;3136;48.788;9.772;2022-07-29T15:23:12;22.00;99.90
6206;DHT22;3136;48.788;9.772;2022-07-29T15:25:38;22.00;99.90
6206;DHT22;3136;48.788;9.772;2022-07-29T15:28:04;22.00;99.90
6206;DHT22;3136;48.788;9.772;2022-07-29T15:30:33;22.00;99.90
6206;DHT22;3136;48.788;9.772;2022-07-29T15:33:00;22.10;99.90
6206;DHT22;3136;48.788;9.772;2022-07-29T15:35:26;22.10;99.90
6206;DHT22;3136;48.788;9.772;2022-07-29T15:37:51;22.20;99.90
6206;DHT22;3136;48.788;9.772;2022-07-29T15:40:17;22.20;99.90
6206;DHT22;3136;48.788;9.772;2022-07-29T15:42:42;22.20;99.90
6206;DHT22;3136;48.788;9.772;2022-07-29T15:45:08;22.20;99.90
6206;DHT22;3136;48.788;9.772;2022-07-29T15:47:37;22.20;99.90
6206;DHT22;3136;48.788;9.772;2022-07-29T15:50:03;22.20;99.90
6206;DHT22;3136;48.788;9.772;2022-07-29T15:52:29;22.20;99.90
6206;DHT22;3136;48.788;9.772;2022-07-29T15:54:55;22.20;99.90
6206;DHT22;3136;48.788;9.772;2022-07-29T15:57:21;22.20;99.90
6206;DHT22;3136;48.788;9.772;2022-07-29T15:59:47;22.20;99.90
6206;DHT22;3136;48.788;9.772;2022-07-29T16:02:12;22.10;99.90
6206;DHT22;3136;48.788;9.772;2022-07-29T16:04:38;22.10;99.90
6206;DHT22;3136;48.788;9.772;2022-07-29T16:07:04;22.00;99.90
6206;DHT22;3136;48.788;9.772;2022-07-29T16:09:29;22.00;99.90
6206;DHT22;3136;48.788;9.772;2022-07-29T16:11:55;22.00;99.90
6206;DHT22;3136;48.788;9.772;2022-07-29T16:14:21;21.90;99.90
6206;DHT22;3136;48.788;9.772;2022-07-29T16:16:47;21.90;99.90
6206;DHT22;3136;48.788;9.772;2022-07-29T16:19:13;21.80;99.90
6206;DHT22;3136;48.788;9.772;2022-07-29T16:21:39;21.90;99.90
6206;DHT22;3136;48.788;9.772;2022-07-29T16:24:05;21.90;99.90
6206;DHT22;3136;48.788;9.772;2022-07-29T16:26:31;21.90;99.90
6206;DHT22;3136;48.788;9.772;2022-07-29T16:28:57;21.90;99.90
6206;DHT22;3136;48.788;9.772;2022-07-29T16:31:24;21.90;99.90
6206;DHT22;3136;48.788;9.772;2022-07-29T16:33:50;21.90;99.90
6206;DHT22;3136;48.788;9.772;2022-07-29T16:36:16;21.90;98.90
6206;DHT22;3136;48.788;9.772;2022-07-29T16:38:42;22.00;99.90
6206;DHT22;3136;48.788;9.772;2022-07-29T16:41:08;22.00;99.90
6206;DHT22;3136;48.788;9.772;2022-07-29T16:43:34;22.10;99.90